createdAt,value
2022-12-01T00:01:21.457Z,4.90
2022-12-01T00:03:49.552Z,4.90
2022-12-01T00:06:21.760Z,4.90
2022-12-01T00:09:09.210Z,4.90
2022-12-01T00:11:39.367Z,4.70
2022-12-01T00:14:07.755Z,4.80
2022-12-01T00:16:37.050Z,4.80
2022-12-01T00:19:04.914Z,4.80
2022-12-01T00:21:32.761Z,4.80
2022-12-01T00:24:00.580Z,4.80
2022-12-01T00:26:28.607Z,4.80
2022-12-01T00:28:59.495Z,5.10
2022-12-01T00:31:28.098Z,4.80
2022-12-01T00:33:56.553Z,4.80
2022-12-01T00:36:24.511Z,4.80
2022-12-01T00:38:53.845Z,4.80
2022-12-01T00:41:22.022Z,4.80
2022-12-01T00:43:50.088Z,4.80
2022-12-01T00:46:19.471Z,4.90
2022-12-01T00:48:47.431Z,4.90
2022-12-01T00:51:15.315Z,4.80
2022-12-01T00:53:43.146Z,4.90
2022-12-01T00:56:10.980Z,4.80
2022-12-01T00:58:38.879Z,4.80
2022-12-01T01:01:07.018Z,4.80
2022-12-01T01:03:36.275Z,4.80
2022-12-01T01:06:09.227Z,4.80
2022-12-01T01:08:37.514Z,4.80
2022-12-01T01:11:06.483Z,4.80
2022-12-01T01:13:35.713Z,4.80
2022-12-01T01:16:05.523Z,4.80
2022-12-01T01:18:33.606Z,4.80
2022-12-01T01:21:06.058Z,4.90
2022-12-01T01:23:34.034Z,4.90
2022-12-01T01:26:03.820Z,4.90
2022-12-01T01:28:31.807Z,4.90
2022-12-01T01:30:59.846Z,4.90
2022-12-01T01:33:27.702Z,4.90
2022-12-01T01:35:59.127Z,4.90
2022-12-01T01:38:28.531Z,4.80
2022-12-01T01:40:56.857Z,4.90
2022-12-01T01:43:41.158Z,4.90
2022-12-01T01:46:11.468Z,4.90
2022-12-01T01:48:40.818Z,5.00
2022-12-01T01:51:09.644Z,4.90
2022-12-01T01:53:38.963Z,5.10
2022-12-01T01:56:08.670Z,4.90
2022-12-01T01:58:38.392Z,4.90
2022-12-01T02:01:07.554Z,5.10
2022-12-01T02:03:38.112Z,4.90
2022-12-01T02:06:07.371Z,4.90
2022-12-01T02:08:38.246Z,4.90
2022-12-01T02:11:34.436Z,4.80
2022-12-01T02:14:09.931Z,4.90
2022-12-01T02:16:44.367Z,4.90
2022-12-01T02:19:39.617Z,4.70
2022-12-01T02:22:23.192Z,4.90
2022-12-01T02:25:12.695Z,4.90
2022-12-01T02:28:07.728Z,4.90
2022-12-01T02:30:42.027Z,4.90
2022-12-01T02:33:18.341Z,4.90
2022-12-01T02:35:51.490Z,4.90
2022-12-01T02:38:27.200Z,4.80
2022-12-01T02:41:01.596Z,5.00
2022-12-01T02:43:35.133Z,4.90
2022-12-01T02:46:10.702Z,4.90
2022-12-01T02:48:40.928Z,4.90
2022-12-01T02:51:12.886Z,4.90
2022-12-01T02:53:40.794Z,4.90
2022-12-01T02:56:11.762Z,4.90
2022-12-01T02:58:39.987Z,4.80
2022-12-01T03:01:46.629Z,5.00
2022-12-01T03:04:32.764Z,5.00
2022-12-01T03:07:12.047Z,4.90
2022-12-01T03:09:48.463Z,4.90
2022-12-01T03:12:22.109Z,4.90
2022-12-01T03:15:01.546Z,4.90
2022-12-01T03:17:38.227Z,4.90
2022-12-01T03:20:11.700Z,4.90
2022-12-01T03:22:44.651Z,4.90
2022-12-01T03:25:14.058Z,4.90
2022-12-01T03:28:06.683Z,4.90
2022-12-01T03:30:35.966Z,5.20
2022-12-01T03:33:10.296Z,4.90
2022-12-01T03:35:43.868Z,5.20
2022-12-01T03:38:18.635Z,4.90
2022-12-01T03:40:50.372Z,5.00
2022-12-01T03:43:22.603Z,4.90
2022-12-01T03:45:56.280Z,4.90
2022-12-01T03:48:26.600Z,4.90
2022-12-01T03:51:06.130Z,4.80
2022-12-01T03:53:39.591Z,4.80
2022-12-01T03:56:08.968Z,4.90
2022-12-01T03:58:41.875Z,4.90
2022-12-01T04:01:10.607Z,4.80
2022-12-01T04:03:39.794Z,4.90
2022-12-01T04:06:08.178Z,4.90
2022-12-01T04:08:37.464Z,4.90
2022-12-01T04:11:32.253Z,4.90
2022-12-01T04:13:59.893Z,4.90
2022-12-01T04:16:27.853Z,4.90
2022-12-01T04:18:57.090Z,4.90
2022-12-01T04:21:24.928Z,4.90
2022-12-01T04:24:01.710Z,5.00
2022-12-01T04:26:30.671Z,5.00
2022-12-01T04:28:58.919Z,4.80
2022-12-01T04:31:26.916Z,4.90
2022-12-01T04:33:56.816Z,4.90
2022-12-01T04:36:24.738Z,5.00
2022-12-01T04:38:53.103Z,5.00
2022-12-01T04:41:21.153Z,4.90
2022-12-01T04:43:49.027Z,5.00
2022-12-01T04:46:17.123Z,5.00
2022-12-01T04:48:45.263Z,4.90
2022-12-01T04:51:14.444Z,4.90
2022-12-01T04:53:42.365Z,5.00
2022-12-01T04:56:10.228Z,5.00
2022-12-01T04:58:38.631Z,5.00
2022-12-01T05:01:08.815Z,5.00
2022-12-01T05:03:38.263Z,5.00
2022-12-01T05:06:08.131Z,5.00
2022-12-01T05:08:37.579Z,5.00
2022-12-01T05:11:07.594Z,4.90
2022-12-01T05:13:37.293Z,4.90
2022-12-01T05:16:06.990Z,4.90
2022-12-01T05:18:35.161Z,5.00
2022-12-01T05:21:03.918Z,5.00
2022-12-01T05:23:33.207Z,5.00
2022-12-01T05:26:03.163Z,5.00
2022-12-01T05:28:31.555Z,5.20
2022-12-01T05:30:59.783Z,5.00
2022-12-01T05:33:29.160Z,5.00
2022-12-01T05:35:57.437Z,4.90
2022-12-01T05:38:25.398Z,5.00
2022-12-01T05:40:53.873Z,4.90
2022-12-01T05:43:29.125Z,5.00
2022-12-01T05:45:58.121Z,5.00
2022-12-01T05:48:26.490Z,5.00
2022-12-01T05:50:54.436Z,5.00
2022-12-01T05:53:22.707Z,4.90
2022-12-01T05:55:54.245Z,5.40
2022-12-01T05:58:23.907Z,5.00
2022-12-01T06:00:51.804Z,5.00
2022-12-01T06:03:19.679Z,5.00
2022-12-01T06:05:47.520Z,5.00
2022-12-01T06:08:15.394Z,5.00
2022-12-01T06:10:43.311Z,5.00
2022-12-01T06:13:11.190Z,5.00
2022-12-01T06:15:40.427Z,5.00
2022-12-01T06:18:08.277Z,4.90
2022-12-01T06:20:36.127Z,5.00
2022-12-01T06:23:03.975Z,5.00
2022-12-01T06:25:31.837Z,5.00
2022-12-01T06:28:00.105Z,5.10
2022-12-01T06:30:28.141Z,5.00
2022-12-01T06:32:57.447Z,5.00
2022-12-01T06:35:25.254Z,5.10
2022-12-01T06:37:54.258Z,5.00
2022-12-01T06:40:22.286Z,4.90
2022-12-01T06:42:50.134Z,5.00
2022-12-01T06:45:18.130Z,5.00
2022-12-01T06:47:48.279Z,5.00
2022-12-01T06:50:17.630Z,5.30
2022-12-01T06:52:45.661Z,5.00
2022-12-01T06:55:13.721Z,5.00
2022-12-01T06:57:43.186Z,5.00
2022-12-01T07:00:13.505Z,5.00
2022-12-01T07:02:41.961Z,5.00
2022-12-01T07:05:10.544Z,4.80
2022-12-01T07:07:40.618Z,5.10
2022-12-01T07:10:10.437Z,5.10
2022-12-01T07:12:38.743Z,5.00
2022-12-01T07:15:07.986Z,5.10
2022-12-01T07:17:36.501Z,5.10
2022-12-01T07:20:05.016Z,5.10
2022-12-01T07:22:38.733Z,5.10
2022-12-01T07:25:08.909Z,5.10
2022-12-01T07:27:36.767Z,5.10
2022-12-01T07:30:05.064Z,5.60
2022-12-01T07:32:32.973Z,5.10
2022-12-01T07:35:00.836Z,5.10
2022-12-01T07:37:28.726Z,5.10
2022-12-01T07:39:56.680Z,5.10
2022-12-01T07:42:25.900Z,5.50
2022-12-01T07:44:53.864Z,5.10
2022-12-01T07:47:21.732Z,5.10
2022-12-01T07:49:49.729Z,5.10
2022-12-01T07:52:17.815Z,5.10
2022-12-01T07:54:45.651Z,5.20
2022-12-01T07:57:14.895Z,5.10
2022-12-01T07:59:44.071Z,5.10
2022-12-01T08:02:12.395Z,5.10
2022-12-01T08:04:40.315Z,5.20
2022-12-01T08:07:08.157Z,5.50
2022-12-01T08:09:36.360Z,5.50
2022-12-01T08:12:04.403Z,5.20
2022-12-01T08:14:32.293Z,5.20
2022-12-01T08:17:01.531Z,5.20
2022-12-01T08:19:29.463Z,5.20
2022-12-01T08:21:57.742Z,5.20
2022-12-01T08:24:25.615Z,5.00
2022-12-01T08:26:53.454Z,5.20
2022-12-01T08:29:21.342Z,6.00
2022-12-01T08:31:49.302Z,5.50
2022-12-01T08:34:18.798Z,5.30
2022-12-01T08:36:46.654Z,5.30
2022-12-01T08:39:14.796Z,5.30
2022-12-01T08:41:42.890Z,5.20
2022-12-01T08:44:11.140Z,5.60
2022-12-01T08:46:39.131Z,5.30
2022-12-01T08:49:07.627Z,5.30
2022-12-01T08:51:37.350Z,5.30
2022-12-01T08:54:05.430Z,5.30
2022-12-01T08:56:36.003Z,5.30
2022-12-01T08:59:04.011Z,5.30
2022-12-01T09:01:32.787Z,5.30
2022-12-01T09:04:09.125Z,5.30
2022-12-01T09:06:42.404Z,5.30
2022-12-01T09:09:12.067Z,5.30
2022-12-01T09:11:40.277Z,5.70
2022-12-01T09:14:08.252Z,5.40
2022-12-01T09:16:36.210Z,5.40
2022-12-01T09:19:04.413Z,5.40
2022-12-01T09:21:34.235Z,5.40
2022-12-01T09:24:04.254Z,5.40
2022-12-01T09:26:32.892Z,5.40
2022-12-01T09:29:02.913Z,5.40
2022-12-01T09:31:31.354Z,5.40
2022-12-01T09:34:00.511Z,5.70
2022-12-01T09:36:28.819Z,5.40
2022-12-01T09:38:56.696Z,5.20
2022-12-01T09:41:29.312Z,5.40
2022-12-01T09:44:02.435Z,5.40
2022-12-01T09:46:36.204Z,5.40
2022-12-01T09:49:06.081Z,5.40
2022-12-01T09:51:36.209Z,5.40
2022-12-01T09:54:04.765Z,5.20
2022-12-01T09:56:41.316Z,5.40
2022-12-01T09:59:17.641Z,5.40
2022-12-01T10:01:47.714Z,5.40
2022-12-01T10:04:20.870Z,5.40
2022-12-01T10:06:52.816Z,5.70
2022-12-01T10:09:25.498Z,5.80
2022-12-01T10:12:00.234Z,5.20
2022-12-01T10:14:37.891Z,5.40
2022-12-01T10:17:16.748Z,5.40
2022-12-01T10:19:55.769Z,5.50
2022-12-01T10:22:40.616Z,5.00
2022-12-01T10:25:21.958Z,5.40
2022-12-01T10:28:06.241Z,5.40
2022-12-01T10:30:39.235Z,5.30
2022-12-01T10:33:18.751Z,6.20
2022-12-01T10:35:46.902Z,5.40
2022-12-01T10:38:20.883Z,5.40
2022-12-01T10:40:50.829Z,5.80
2022-12-01T10:43:21.740Z,5.40
2022-12-01T10:45:49.720Z,5.60
2022-12-01T10:48:19.517Z,5.40
2022-12-01T10:50:49.200Z,5.40
2022-12-01T10:53:31.901Z,5.40
2022-12-01T10:56:04.964Z,5.40
2022-12-01T10:58:40.757Z,5.40
2022-12-01T11:01:16.534Z,5.50
2022-12-01T11:03:49.840Z,5.40
2022-12-01T11:06:23.408Z,5.40
2022-12-01T11:08:54.754Z,5.40
2022-12-01T11:11:27.332Z,5.40
2022-12-01T11:13:57.928Z,5.50
2022-12-01T11:16:41.009Z,5.20
2022-12-01T11:19:23.321Z,5.40
2022-12-01T11:21:56.792Z,5.40
2022-12-01T11:24:34.648Z,5.40
2022-12-01T11:27:02.639Z,5.50
2022-12-01T11:29:36.755Z,5.40
2022-12-01T11:32:17.293Z,5.50
2022-12-01T11:34:51.047Z,5.40
2022-12-01T11:37:21.547Z,5.40
2022-12-01T11:39:50.336Z,5.50
2022-12-01T11:42:24.916Z,5.50
2022-12-01T11:44:56.769Z,5.40
2022-12-01T11:47:26.309Z,5.50
2022-12-01T11:49:56.580Z,5.50
2022-12-01T11:52:28.324Z,5.50
2022-12-01T11:55:03.271Z,5.30
2022-12-01T11:57:36.215Z,5.50
2022-12-01T12:00:13.433Z,5.40
2022-12-01T12:02:51.169Z,5.50
2022-12-01T12:05:45.273Z,5.50
2022-12-01T12:08:22.153Z,5.50
2022-12-01T12:10:59.521Z,5.60
2022-12-01T12:14:12.221Z,5.50
2022-12-01T12:16:53.420Z,5.50
2022-12-01T12:20:00.342Z,5.30
2022-12-01T12:22:36.580Z,5.50
2022-12-01T12:25:18.607Z,5.50
2022-12-01T12:27:53.286Z,5.50
2022-12-01T12:30:26.152Z,5.90
2022-12-01T12:33:18.840Z,5.30
2022-12-01T12:35:50.175Z,5.50
2022-12-01T12:38:38.769Z,5.50
2022-12-01T12:41:17.741Z,5.50
2022-12-01T12:43:57.744Z,5.50
2022-12-01T12:46:34.702Z,5.50
2022-12-01T12:49:20.219Z,5.50
2022-12-01T12:51:54.829Z,5.30
2022-12-01T12:54:28.951Z,5.50
2022-12-01T12:57:01.624Z,5.50
2022-12-01T12:59:35.297Z,5.50
2022-12-01T13:02:10.703Z,5.50
2022-12-01T13:04:44.570Z,5.50
2022-12-01T13:07:24.031Z,5.50
2022-12-01T13:09:58.272Z,5.50
2022-12-01T13:12:31.506Z,5.50
2022-12-01T13:15:06.141Z,5.40
2022-12-01T13:17:37.789Z,5.50
2022-12-01T13:20:08.746Z,5.50
2022-12-01T13:22:37.915Z,5.60
2022-12-01T13:25:07.103Z,5.50
2022-12-01T13:27:38.403Z,5.50
2022-12-01T13:30:17.371Z,5.60
2022-12-01T13:32:45.334Z,5.50
2022-12-01T13:35:26.757Z,5.60
2022-12-01T13:38:15.106Z,5.60
2022-12-01T13:40:43.029Z,5.60
2022-12-01T13:43:19.275Z,5.70
2022-12-01T13:45:48.172Z,5.70
2022-12-01T13:48:31.020Z,5.90
2022-12-01T13:51:02.411Z,5.70
2022-12-01T13:53:32.411Z,5.70
2022-12-01T13:56:24.331Z,5.70
2022-12-01T13:58:54.258Z,5.70
2022-12-01T14:01:44.557Z,5.70
2022-12-01T14:04:30.604Z,5.70
2022-12-01T14:07:27.598Z,5.60
2022-12-01T14:09:59.585Z,5.60
2022-12-01T14:12:31.461Z,5.60
2022-12-01T14:15:03.442Z,5.60
2022-12-01T14:17:33.075Z,5.60
2022-12-01T14:20:19.271Z,5.60
2022-12-01T14:22:50.355Z,5.60
2022-12-01T14:25:26.854Z,5.60
2022-12-01T14:27:56.596Z,5.60
2022-12-01T14:31:01.945Z,5.60
2022-12-01T14:33:45.376Z,5.60
2022-12-01T14:36:26.293Z,5.60
2022-12-01T14:39:03.029Z,5.40
2022-12-01T14:41:35.127Z,5.50
2022-12-01T14:44:06.670Z,5.60
2022-12-01T14:46:42.191Z,5.50
2022-12-01T14:49:17.742Z,5.60
2022-12-01T14:51:48.208Z,5.60
2022-12-01T14:54:24.681Z,5.60
2022-12-01T14:56:55.055Z,5.60
2022-12-01T14:59:26.196Z,5.70
2022-12-01T15:01:57.186Z,5.60
2022-12-01T15:04:26.072Z,5.60
2022-12-01T15:06:57.094Z,5.40
2022-12-01T15:09:35.160Z,5.40
2022-12-01T15:12:07.225Z,5.60
2022-12-01T15:14:37.185Z,5.60
2022-12-01T15:17:08.727Z,5.60
2022-12-01T15:19:39.215Z,5.70
2022-12-01T15:22:15.484Z,5.60
2022-12-01T15:24:45.684Z,5.60
2022-12-01T15:27:28.809Z,5.50
2022-12-01T15:29:58.378Z,5.40
2022-12-01T15:32:27.910Z,5.50
2022-12-01T15:35:01.564Z,5.30
2022-12-01T15:37:33.171Z,5.60
2022-12-01T15:40:59.882Z,5.70
2022-12-01T15:43:05.446Z,5.50
2022-12-01T15:45:47.093Z,5.50
2022-12-01T15:48:25.777Z,5.50
2022-12-01T15:51:04.560Z,5.70
2022-12-01T15:53:35.181Z,5.40
2022-12-01T15:56:07.220Z,5.50
2022-12-01T15:58:41.106Z,5.50
2022-12-01T16:01:13.029Z,5.60
2022-12-01T16:03:55.868Z,5.40
2022-12-01T16:06:26.531Z,5.50
2022-12-01T16:08:59.251Z,5.50
2022-12-01T16:11:29.073Z,5.50
2022-12-01T16:14:04.174Z,5.50
2022-12-01T16:16:44.223Z,5.60
2022-12-01T16:19:27.731Z,5.50
2022-12-01T16:21:59.817Z,5.50
2022-12-01T16:24:31.341Z,5.50
2022-12-01T16:27:04.178Z,5.50
2022-12-01T16:29:35.661Z,5.60
2022-12-01T16:32:21.294Z,5.50
2022-12-01T16:34:51.369Z,5.40
2022-12-01T16:37:19.473Z,5.50
2022-12-01T16:39:47.299Z,5.50
2022-12-01T16:42:18.237Z,5.50
2022-12-01T16:44:46.690Z,5.50
2022-12-01T16:47:17.028Z,5.50
2022-12-01T16:49:45.013Z,5.60
2022-12-01T16:55:00.976Z,5.50
2022-12-01T16:57:30.630Z,5.50
2022-12-01T16:59:58.766Z,5.50
2022-12-01T17:02:28.614Z,5.50
2022-12-01T17:04:59.557Z,5.50
2022-12-01T17:07:27.546Z,5.50
2022-12-01T17:10:13.626Z,5.50
2022-12-01T17:12:42.991Z,5.40
2022-12-01T17:15:11.592Z,5.50
2022-12-01T17:17:39.850Z,5.50
2022-12-01T17:20:09.789Z,5.50
2022-12-01T17:22:38.570Z,5.50
2022-12-01T17:25:09.468Z,5.50
2022-12-01T17:27:37.445Z,5.40
2022-12-01T17:30:10.986Z,5.40
2022-12-01T17:32:41.953Z,5.60
2022-12-01T17:35:10.913Z,5.40
2022-12-01T17:37:38.928Z,5.50
2022-12-01T17:40:09.015Z,5.50
2022-12-01T17:42:37.263Z,5.40
2022-12-01T17:45:07.883Z,5.50
2022-12-01T17:47:35.883Z,5.50
2022-12-01T17:50:03.940Z,5.80
2022-12-01T17:52:31.859Z,5.40
2022-12-01T17:54:59.875Z,5.50
2022-12-01T17:57:27.968Z,5.40
2022-12-01T17:59:56.003Z,5.50
2022-12-01T18:02:25.559Z,5.50
2022-12-01T18:04:54.179Z,5.70
2022-12-01T18:07:23.019Z,5.50
2022-12-01T18:09:51.067Z,5.50
2022-12-01T18:12:18.983Z,5.50
2022-12-01T18:14:47.461Z,5.30
2022-12-01T18:17:15.515Z,5.40
2022-12-01T18:19:44.720Z,5.40
2022-12-01T18:22:12.625Z,5.50
2022-12-01T18:24:40.595Z,5.40
2022-12-01T18:27:08.516Z,5.40
2022-12-01T18:29:36.443Z,5.40
2022-12-01T18:32:04.627Z,5.70
2022-12-01T18:34:32.546Z,5.50
2022-12-01T18:37:06.843Z,5.50
2022-12-01T18:39:40.140Z,5.50
2022-12-01T18:42:08.306Z,5.50
2022-12-01T18:44:36.396Z,4.90
2022-12-01T18:47:04.668Z,5.50
2022-12-01T18:49:32.788Z,5.50
2022-12-01T18:52:06.138Z,5.40
2022-12-01T18:54:35.790Z,5.50
2022-12-01T18:57:03.625Z,5.40
2022-12-01T18:59:31.649Z,5.40
2022-12-01T19:01:59.516Z,5.40
2022-12-01T19:04:27.381Z,5.40
2022-12-01T19:06:55.612Z,5.30
2022-12-01T19:09:24.808Z,5.60
2022-12-01T19:11:59.571Z,5.40
2022-12-01T19:14:28.905Z,5.50
2022-12-01T19:16:57.194Z,5.50
2022-12-01T19:19:25.104Z,5.70
2022-12-01T19:21:53.120Z,5.40
2022-12-01T19:24:21.297Z,5.80
2022-12-01T19:26:50.457Z,5.40
2022-12-01T19:29:18.359Z,5.50
2022-12-01T19:31:46.276Z,5.40
2022-12-01T19:34:14.154Z,5.40
2022-12-01T19:36:42.007Z,5.40
2022-12-01T19:39:10.149Z,5.60
2022-12-01T19:41:38.443Z,5.70
2022-12-01T19:44:07.772Z,5.40
2022-12-01T19:46:35.621Z,5.40
2022-12-01T19:49:03.661Z,5.40
2022-12-01T19:51:34.891Z,5.30
2022-12-01T19:54:02.997Z,5.40
2022-12-01T19:56:31.446Z,5.40
2022-12-01T19:58:59.802Z,5.40
2022-12-01T20:01:29.670Z,5.20
2022-12-01T20:03:57.611Z,5.40
2022-12-01T20:06:27.302Z,5.50
2022-12-01T20:08:56.780Z,5.40
2022-12-01T20:11:25.458Z,5.40
2022-12-01T20:13:53.478Z,5.40
2022-12-01T20:16:23.366Z,5.40
2022-12-01T20:18:54.078Z,5.40
2022-12-01T20:21:23.508Z,5.40
2022-12-01T20:23:55.255Z,5.30
2022-12-01T20:26:27.554Z,5.40
2022-12-01T20:29:01.188Z,5.40
2022-12-01T20:31:30.593Z,5.40
2022-12-01T20:34:01.346Z,5.40
2022-12-01T20:36:29.466Z,5.60
2022-12-01T20:38:57.533Z,5.40
2022-12-01T20:41:25.374Z,5.40
2022-12-01T20:43:53.280Z,5.40
2022-12-01T20:46:21.167Z,5.60
2022-12-01T20:48:49.060Z,5.40
2022-12-01T20:51:18.877Z,5.50
2022-12-01T20:54:05.464Z,5.40
2022-12-01T20:56:34.889Z,5.40
2022-12-01T20:59:02.695Z,5.40
2022-12-01T21:01:30.585Z,5.10
2022-12-01T21:03:58.501Z,5.30
2022-12-01T21:06:29.048Z,5.30
2022-12-01T21:08:57.355Z,5.70
2022-12-01T21:11:41.679Z,5.40
2022-12-01T21:14:16.812Z,5.40
2022-12-01T21:16:48.177Z,5.60
2022-12-01T21:19:22.903Z,5.60
2022-12-01T21:21:52.127Z,5.40
2022-12-01T21:24:22.415Z,5.40
2022-12-01T21:26:54.505Z,5.40
2022-12-01T21:29:25.455Z,5.70
2022-12-01T21:31:55.092Z,5.30
2022-12-01T21:34:24.666Z,5.30
2022-12-01T21:36:57.037Z,5.40
2022-12-01T21:39:26.378Z,5.70
2022-12-01T21:41:57.137Z,5.30
2022-12-01T21:44:33.065Z,5.40
2022-12-01T21:47:14.298Z,5.40
2022-12-01T21:49:42.247Z,5.40
2022-12-01T21:52:17.594Z,5.10
2022-12-01T21:54:45.443Z,5.40
2022-12-01T21:57:32.823Z,5.40
2022-12-01T22:00:25.989Z,5.30
2022-12-01T22:03:07.339Z,5.30
2022-12-01T22:05:39.124Z,5.40
2022-12-01T22:08:21.123Z,5.20
2022-12-01T22:11:00.436Z,5.40
2022-12-01T22:13:37.282Z,5.30
2022-12-01T22:16:05.289Z,5.40
2022-12-01T22:18:37.462Z,5.40
2022-12-01T22:21:35.336Z,5.40
2022-12-01T22:24:40.886Z,5.40
2022-12-01T22:27:29.335Z,5.30
2022-12-01T22:29:59.632Z,5.30
2022-12-01T22:32:37.165Z,5.30
2022-12-01T22:35:30.312Z,5.50
2022-12-01T22:38:21.186Z,5.30
2022-12-01T22:40:56.555Z,5.30
2022-12-01T22:43:46.253Z,5.30
2022-12-01T22:46:30.097Z,5.30
2022-12-01T22:48:59.380Z,5.30
2022-12-01T22:51:36.342Z,5.60
2022-12-01T22:54:22.763Z,5.30
2022-12-01T22:57:00.079Z,5.30
2022-12-01T22:59:32.603Z,5.20
2022-12-01T23:02:02.057Z,5.40
2022-12-01T23:04:32.837Z,5.20
2022-12-01T23:07:07.838Z,5.40
2022-12-01T23:09:38.637Z,5.90
2022-12-01T23:12:21.850Z,5.40
2022-12-01T23:14:53.920Z,5.40
2022-12-01T23:17:24.239Z,5.50
2022-12-01T23:19:53.868Z,5.40
2022-12-01T23:22:21.723Z,5.40
2022-12-01T23:24:49.737Z,5.30
2022-12-01T23:27:19.061Z,5.50
2022-12-01T23:29:47.037Z,5.30
2022-12-01T23:32:14.855Z,5.30
2022-12-01T23:34:42.826Z,5.40
2022-12-01T23:37:27.886Z,5.30
2022-12-01T23:39:56.752Z,5.60
2022-12-01T23:42:25.918Z,5.50
2022-12-01T23:44:54.024Z,5.30
2022-12-01T23:47:26.021Z,5.30
2022-12-01T23:49:59.944Z,5.30
2022-12-01T23:52:33.562Z,5.60
2022-12-01T23:55:01.728Z,5.40
2022-12-01T23:57:32.142Z,5.30
